Terminal Aerodrome Forecast
Issued by NWS

Current Version | Previous Version | Text Only | Print | Product List | Glossary On
Versions: 1 2 3 4 5 6 7 8 9 10 11 12 13 14 15 16 17 18 19 20 21 22 23 24 25
000
FTUS42 KTAE 220716 AAB
TAFECP
TAF AMD
KECP 220716Z 2207/2306 08009KT 6SM -RA BR SCT006 OVC050
      TEMPO 2207/2211 BKN006
     FM221100 06007KT 6SM SHRA SCT004 OVC007
     FM221500 05009KT P6SM -SHRA BKN015 OVC025
     FM221900 06009KT P6SM SCT025 BKN040
     FM230000 03005KT P6SM BKN015=

USA.gov is the U.S. government's official web portal to all federal, state and local government web resources and services.